Time,TemperatureF,DewpointF,PressureIn,WindDirection,WindDirectionDegrees,WindSpeedMPH,WindSpeedGustMPH,Humidity,HourlyPrecipIn,Conditions,Clouds,dailyrainin,SoftwareType,DateUTC
2013-06-24 00:00:00,57.0,52.8,29.81,SSE,158,0.0,1.1,86,0.00,,,0.00,WUHU216HW,2013-06-24 07:00:00,
2013-06-24 00:05:00,56.8,52.6,29.81,SSE,158,2.6,2.6,86,0.00,,,0.00,WUHU216HW,2013-06-24 07:05:00,
2013-06-24 00:10:00,56.8,52.6,29.81,SE,135,0.0,2.6,86,0.00,,,0.00,WUHU216HW,2013-06-24 07:10:00,
2013-06-24 00:15:00,56.8,52.6,29.80,South,180,0.0,1.7,86,0.00,,,0.00,WUHU216HW,2013-06-24 07:15:00,
2013-06-24 00:20:00,56.8,52.6,29.80,SSE,158,2.0,2.0,86,0.00,,,0.00,WUHU216HW,2013-06-24 07:20:00,
2013-06-24 00:25:00,56.8,52.9,29.80,ESE,113,0.0,2.0,87,0.00,,,0.00,WUHU216HW,2013-06-24 07:25:00,
2013-06-24 00:31:00,56.8,52.9,29.81,SSE,158,2.2,2.2,87,0.00,,,0.00,WUHU216HW,2013-06-24 07:31:00,
2013-06-24 00:36:00,56.4,52.6,29.81,SW,225,4.6,4.6,87,0.00,,,0.00,WUHU216HW,2013-06-24 07:36:00,
2013-06-24 00:41:00,56.4,52.6,29.81,SSE,158,0.0,4.9,87,0.00,,,0.00,WUHU216HW,2013-06-24 07:41:00,
2013-06-24 00:46:00,56.4,52.6,29.80,SE,135,1.5,4.9,87,0.00,,,0.00,WUHU216HW,2013-06-24 07:46:00,
2013-06-24 00:51:00,56.3,52.4,29.80,South,180,0.0,3.1,87,0.00,,,0.00,WUHU216HW,2013-06-24 07:51:00,
2013-06-24 00:56:00,56.3,52.4,29.80,SSE,158,0.0,2.6,87,0.00,,,0.00,WUHU216HW,2013-06-24 07:56:00,
2013-06-24 01:01:00,56.3,52.4,29.80,South,180,4.2,4.2,87,0.00,,,0.00,WUHU216HW,2013-06-24 08:01:00,
2013-06-24 01:06:00,56.1,52.5,29.80,SE,135,0.0,4.2,88,0.00,,,0.00,WUHU216HW,2013-06-24 08:06:00,
2013-06-24 01:11:00,56.1,52.5,29.79,South,180,2.0,4.2,88,0.00,,,0.00,WUHU216HW,2013-06-24 08:11:00,
2013-06-24 01:16:00,56.1,52.5,29.79,South,180,0.0,2.4,88,0.00,,,0.00,WUHU216HW,2013-06-24 08:16:00,
2013-06-24 01:21:00,55.9,52.4,29.79,SSE,158,0.2,2.4,88,0.00,,,0.00,WUHU216HW,2013-06-24 08:21:00,
2013-06-24 01:26:00,55.9,52.4,29.79,SSE,158,2.4,2.4,88,0.00,,,0.00,WUHU216HW,2013-06-24 08:26:00,
2013-06-24 01:32:00,55.9,52.4,29.79,SSE,158,0.0,2.4,88,0.00,,,0.00,WUHU216HW,2013-06-24 08:32:00,
2013-06-24 01:37:00,55.9,52.4,29.78,SE,135,0.0,2.4,88,0.00,,,0.00,WUHU216HW,2013-06-24 08:37:00,
2013-06-24 01:42:00,55.9,52.4,29.79,SSE,158,0.8,1.1,88,0.00,,,0.00,WUHU216HW,2013-06-24 08:42:00,
2013-06-24 01:47:00,55.9,52.4,29.79,SE,135,0.0,4.2,88,0.00,,,0.00,WUHU216HW,2013-06-24 08:47:00,
2013-06-24 01:52:00,55.9,52.4,29.79,SSW,203,0.0,6.9,88,0.00,,,0.00,WUHU216HW,2013-06-24 08:52:00,
2013-06-24 01:58:00,55.7,52.2,29.79,SW,225,2.9,6.9,88,0.00,,,0.00,WUHU216HW,2013-06-24 08:58:00,
2013-06-24 02:03:00,55.7,52.2,29.79,SW,225,3.5,6.7,88,0.00,,,0.00,WUHU216HW,2013-06-24 09:03:00,
2013-06-24 02:08:00,55.7,52.2,29.80,SSW,203,0.0,5.8,88,0.00,,,0.00,WUHU216HW,2013-06-24 09:08:00,
2013-06-24 02:13:00,55.7,52.2,29.80,SW,225,0.0,5.8,88,0.00,,,0.00,WUHU216HW,2013-06-24 09:13:00,
2013-06-24 02:18:00,55.9,52.4,29.80,SW,225,0.0,5.3,88,0.00,,,0.00,WUHU216HW,2013-06-24 09:18:00,
2013-06-24 02:23:00,55.9,52.4,29.80,WSW,248,0.0,0.4,88,0.00,,,0.00,WUHU216HW,2013-06-24 09:23:00,
2013-06-24 02:28:00,55.9,52.4,29.80,South,180,0.0,0.4,88,0.00,,,0.00,WUHU216HW,2013-06-24 09:28:00,
2013-06-24 02:33:00,55.9,52.4,29.79,SSE,158,0.0,0.0,88,0.00,,,0.00,WUHU216HW,2013-06-24 09:33:00,
2013-06-24 02:38:00,55.9,52.4,29.79,ESE,113,0.0,0.0,88,0.00,,,0.00,WUHU216HW,2013-06-24 09:38:00,
2013-06-24 02:43:00,55.9,52.4,29.78,SSE,158,0.0,0.0,88,0.00,,,0.00,WUHU216HW,2013-06-24 09:43:00,
2013-06-24 02:48:00,55.9,52.4,29.79,SE,135,0.0,0.0,88,0.00,,,0.00,WUHU216HW,2013-06-24 09:48:00,
2013-06-24 02:53:00,55.9,52.4,29.79,SSE,158,0.0,0.0,88,0.00,,,0.00,WUHU216HW,2013-06-24 09:53:00,
2013-06-24 02:59:00,55.9,52.4,29.79,SSE,158,0.0,0.0,88,0.00,,,0.00,WUHU216HW,2013-06-24 09:59:00,
2013-06-24 03:04:00,56.1,52.2,29.78,ESE,113,0.0,0.0,87,0.00,,,0.00,WUHU216HW,2013-06-24 10:04:00,
2013-06-24 03:09:00,56.1,52.2,29.78,East,90,0.0,1.7,87,0.00,,,0.00,WUHU216HW,2013-06-24 10:09:00,
2013-06-24 03:14:00,56.1,52.2,29.78,South,180,0.0,2.6,87,0.00,,,0.00,WUHU216HW,2013-06-24 10:14:00,
2013-06-24 03:19:00,56.1,52.2,29.77,South,180,1.1,2.6,87,0.00,,,0.00,WUHU216HW,2013-06-24 10:19:00,
2013-06-24 03:24:00,56.1,52.2,29.78,SE,135,0.0,2.6,87,0.00,,,0.00,WUHU216HW,2013-06-24 10:24:00,
2013-06-24 03:29:00,56.1,52.2,29.78,SSE,158,0.0,1.1,87,0.00,,,0.00,WUHU216HW,2013-06-24 10:29:00,
2013-06-24 03:34:00,55.9,52.0,29.78,SE,135,0.0,0.6,87,0.00,,,0.00,WUHU216HW,2013-06-24 10:34:00,
2013-06-24 03:39:00,55.9,52.0,29.78,South,180,0.0,0.8,87,0.00,,,0.00,WUHU216HW,2013-06-24 10:39:00,
2013-06-24 03:45:00,55.9,52.0,29.78,SW,225,0.0,0.8,87,0.00,,,0.00,WUHU216HW,2013-06-24 10:45:00,
2013-06-24 03:50:00,55.9,52.0,29.78,SSE,158,0.0,0.0,87,0.00,,,0.00,WUHU216HW,2013-06-24 10:50:00,
2013-06-24 03:55:00,55.9,52.0,29.78,SW,225,0.0,0.0,87,0.00,,,0.00,WUHU216HW,2013-06-24 10:55:00,
2013-06-24 04:00:00,55.9,52.0,29.78,SSW,203,0.0,0.0,87,0.00,,,0.00,WUHU216HW,2013-06-24 11:00:00,
2013-06-24 04:05:00,55.9,52.0,29.78,SSW,203,0.0,0.0,87,0.00,,,0.00,WUHU216HW,2013-06-24 11:05:00,
2013-06-24 04:10:00,55.9,52.0,29.78,South,180,2.2,2.2,87,0.00,,,0.00,WUHU216HW,2013-06-24 11:10:00,
2013-06-24 04:15:00,55.9,52.0,29.78,SSE,158,0.6,2.2,87,0.00,,,0.00,WUHU216HW,2013-06-24 11:15:00,
2013-06-24 04:20:00,55.9,52.0,29.78,South,180,0.0,2.2,87,0.00,,,0.00,WUHU216HW,2013-06-24 11:20:00,
2013-06-24 04:25:00,55.9,52.0,29.78,WSW,248,0.0,0.8,87,0.00,,,0.00,WUHU216HW,2013-06-24 11:25:00,
2013-06-24 04:31:00,56.1,52.2,29.79,SSW,203,2.0,2.0,87,0.00,,,0.00,WUHU216HW,2013-06-24 11:31:00,
2013-06-24 04:36:00,56.1,52.2,29.79,SW,225,0.0,2.0,87,0.00,,,0.00,WUHU216HW,2013-06-24 11:36:00,
2013-06-24 04:41:00,56.1,52.2,29.79,SE,135,0.0,2.0,87,0.00,,,0.00,WUHU216HW,2013-06-24 11:41:00,
2013-06-24 04:46:00,55.9,51.7,29.79,SW,225,0.0,0.6,86,0.00,,,0.00,WUHU216HW,2013-06-24 11:46:00,
2013-06-24 04:51:00,55.9,51.7,29.78,SSW,203,1.5,3.1,86,0.00,,,0.00,WUHU216HW,2013-06-24 11:51:00,
2013-06-24 04:56:00,55.9,51.7,29.79,SE,135,0.0,3.1,86,0.00,,,0.00,WUHU216HW,2013-06-24 11:56:00,
2013-06-24 05:01:00,55.7,51.5,29.79,SSW,203,0.0,1.5,86,0.00,,,0.00,WUHU216HW,2013-06-24 12:01:00,
2013-06-24 05:06:00,55.7,51.5,29.79,SSE,158,0.0,0.0,86,0.00,,,0.00,WUHU216HW,2013-06-24 12:06:00,
2013-06-24 05:12:00,55.7,51.5,29.79,SE,135,0.0,0.0,86,0.00,,,0.00,WUHU216HW,2013-06-24 12:12:00,
2013-06-24 05:17:00,55.5,51.4,29.80,SW,225,0.0,0.0,86,0.00,,,0.00,WUHU216HW,2013-06-24 12:17:00,
2013-06-24 05:22:00,55.7,51.5,29.80,SE,135,0.0,0.0,86,0.00,,,0.00,WUHU216HW,2013-06-24 12:22:00,
2013-06-24 05:27:00,55.5,51.4,29.80,SSE,158,0.0,4.9,86,0.00,,,0.00,WUHU216HW,2013-06-24 12:27:00,
2013-06-24 05:32:00,55.5,51.4,29.79,SE,135,0.0,4.9,86,0.00,,,0.00,WUHU216HW,2013-06-24 12:32:00,
2013-06-24 05:38:00,55.5,51.4,29.79,WSW,248,0.8,0.8,86,0.00,,,0.00,WUHU216HW,2013-06-24 12:38:00,
2013-06-24 05:43:00,55.5,51.4,29.80,SW,225,0.0,0.8,86,0.00,,,0.00,WUHU216HW,2013-06-24 12:43:00,
2013-06-24 05:48:00,55.4,51.2,29.80,SSW,203,0.0,0.0,86,0.00,,,0.00,WUHU216HW,2013-06-24 12:48:00,
2013-06-24 05:53:00,55.4,51.2,29.80,SSE,158,0.8,2.9,86,0.00,,,0.00,WUHU216HW,2013-06-24 12:53:00,
2013-06-24 05:58:00,55.2,51.0,29.80,South,180,0.0,2.9,86,0.00,,,0.00,WUHU216HW,2013-06-24 12:58:00,
2013-06-24 06:03:00,55.2,51.0,29.81,ESE,113,0.0,0.8,86,0.00,,,0.00,WUHU216HW,2013-06-24 13:03:00,
2013-06-24 06:09:00,55.2,51.0,29.81,South,180,0.0,0.0,86,0.00,,,0.00,WUHU216HW,2013-06-24 13:09:00,
2013-06-24 06:14:00,55.2,51.3,29.80,SSE,158,0.0,0.0,87,0.00,,,0.00,WUHU216HW,2013-06-24 13:14:00,
2013-06-24 06:19:00,55.2,51.3,29.80,SW,225,0.0,0.0,87,0.00,,,0.00,WUHU216HW,2013-06-24 13:19:00,
2013-06-24 06:24:00,55.2,51.3,29.80,South,180,0.0,1.3,87,0.00,,,0.00,WUHU216HW,2013-06-24 13:24:00,
2013-06-24 06:29:00,55.2,51.3,29.81,South,180,0.0,1.3,87,0.00,,,0.00,WUHU216HW,2013-06-24 13:29:00,
2013-06-24 06:34:00,55.4,51.5,29.81,SSW,203,0.0,0.0,87,0.00,,,0.00,WUHU216HW,2013-06-24 13:34:00,
2013-06-24 06:40:00,55.4,51.5,29.81,SSE,158,0.0,0.0,87,0.00,,,0.00,WUHU216HW,2013-06-24 13:40:00,
2013-06-24 06:45:00,55.4,51.5,29.81,SSE,158,0.0,0.0,87,0.00,,,0.00,WUHU216HW,2013-06-24 13:45:00,
2013-06-24 06:50:00,55.5,51.7,29.81,SSW,203,0.0,0.0,87,0.00,,,0.00,WUHU216HW,2013-06-24 13:50:00,
2013-06-24 06:56:00,55.5,51.4,29.81,SSW,203,0.0,0.0,86,0.00,,,0.00,WUHU216HW,2013-06-24 13:56:00,
2013-06-24 07:00:00,55.4,51.2,29.81,SSW,203,2.0,2.0,86,0.00,,,0.00,WUHU216HW,2013-06-24 14:00:00,
2013-06-24 07:06:00,55.5,51.4,29.81,SSW,203,0.0,2.0,86,0.00,,,0.00,WUHU216HW,2013-06-24 14:06:00,
2013-06-24 07:11:00,55.5,51.4,29.82,SW,225,0.0,1.5,86,0.00,,,0.00,WUHU216HW,2013-06-24 14:11:00,
2013-06-24 07:16:00,55.5,51.4,29.82,SE,135,0.0,1.5,86,0.00,,,0.00,WUHU216HW,2013-06-24 14:16:00,
2013-06-24 07:21:00,55.5,51.4,29.82,SSW,203,0.0,0.0,86,0.00,,,0.00,WUHU216HW,2013-06-24 14:21:00,
2013-06-24 07:26:00,55.7,51.5,29.82,SW,225,0.0,0.0,86,0.00,,,0.00,WUHU216HW,2013-06-24 14:26:00,
2013-06-24 07:31:00,55.7,51.9,29.82,SSE,158,0.0,2.0,87,0.00,,,0.00,WUHU216HW,2013-06-24 14:31:00,
2013-06-24 07:36:00,55.9,52.0,29.82,SW,225,0.0,2.0,87,0.00,,,0.00,WUHU216HW,2013-06-24 14:36:00,
2013-06-24 07:41:00,55.9,52.0,29.82,SSW,203,0.0,0.0,87,0.00,,,0.00,WUHU216HW,2013-06-24 14:41:00,
2013-06-24 07:46:00,55.9,52.0,29.82,SW,225,1.1,1.1,87,0.00,,,0.00,WUHU216HW,2013-06-24 14:46:00,
2013-06-24 07:51:00,55.9,52.0,29.82,SSW,203,0.0,1.1,87,0.00,,,0.00,WUHU216HW,2013-06-24 14:51:00,
2013-06-24 07:56:00,55.9,52.0,29.82,SW,225,0.0,1.1,87,0.00,,,0.00,WUHU216HW,2013-06-24 14:56:00,
2013-06-24 08:01:00,55.9,52.0,29.82,South,180,0.0,3.1,87,0.00,,,0.00,WUHU216HW,2013-06-24 15:01:00,
2013-06-24 08:06:00,56.1,52.2,29.82,SW,225,0.6,3.1,87,0.00,,,0.00,WUHU216HW,2013-06-24 15:06:00,
2013-06-24 08:11:00,55.9,52.0,29.82,South,180,0.0,0.6,87,0.00,,,0.00,WUHU216HW,2013-06-24 15:11:00,
2013-06-24 08:17:00,55.9,52.0,29.83,SSW,203,0.0,4.4,87,0.00,,,0.00,WUHU216HW,2013-06-24 15:17:00,
2013-06-24 08:22:00,56.1,52.2,29.83,SSW,203,1.7,4.4,87,0.00,,,0.00,WUHU216HW,2013-06-24 15:22:00,
2013-06-24 08:27:00,55.9,52.0,29.83,SSE,158,1.3,1.7,87,0.00,,,0.00,WUHU216HW,2013-06-24 15:27:00,
2013-06-24 08:32:00,56.1,52.2,29.83,SSW,203,0.0,1.7,87,0.00,,,0.00,WUHU216HW,2013-06-24 15:32:00,
2013-06-24 08:37:00,56.1,52.2,29.84,SW,225,0.0,1.3,87,0.00,,,0.00,WUHU216HW,2013-06-24 15:37:00,
2013-06-24 08:42:00,56.1,52.2,29.84,WSW,248,0.0,3.8,87,0.00,,,0.00,WUHU216HW,2013-06-24 15:42:00,
2013-06-24 08:48:00,56.1,52.2,29.84,SW,225,0.0,3.8,87,0.00,,,0.00,WUHU216HW,2013-06-24 15:48:00,
2013-06-24 08:53:00,56.1,52.2,29.84,South,180,0.0,1.5,87,0.00,,,0.00,WUHU216HW,2013-06-24 15:53:00,
2013-06-24 08:58:00,56.1,52.2,29.84,SSE,158,0.0,0.0,87,0.00,,,0.00,WUHU216HW,2013-06-24 15:58:00,
2013-06-24 09:03:00,56.3,52.4,29.84,SSW,203,0.0,0.0,87,0.00,,,0.00,WUHU216HW,2013-06-24 16:03:00,
2013-06-24 09:08:00,56.3,52.4,29.84,SSW,203,1.1,1.1,87,0.00,,,0.00,WUHU216HW,2013-06-24 16:08:00,
2013-06-24 09:13:00,56.4,52.6,29.84,SW,225,0.0,1.1,87,0.00,,,0.00,WUHU216HW,2013-06-24 16:13:00,
2013-06-24 09:18:00,56.8,52.9,29.84,SE,135,0.0,1.1,87,0.00,,,0.00,WUHU216HW,2013-06-24 16:18:00,
2013-06-24 09:23:00,56.8,52.9,29.84,South,180,1.5,1.5,87,0.00,,,0.00,WUHU216HW,2013-06-24 16:23:00,
2013-06-24 09:28:00,57.0,52.8,29.83,South,180,0.0,1.5,86,0.00,,,0.00,WUHU216HW,2013-06-24 16:28:00,
2013-06-24 09:34:00,56.8,52.6,29.83,SW,225,0.0,2.4,86,0.00,,,0.00,WUHU216HW,2013-06-24 16:34:00,
2013-06-24 09:39:00,56.8,52.6,29.84,SW,225,0.8,2.4,86,0.00,,,0.00,WUHU216HW,2013-06-24 16:39:00,
2013-06-24 09:44:00,57.0,52.8,29.84,SW,225,5.5,5.5,86,0.00,,,0.00,WUHU216HW,2013-06-24 16:44:00,
2013-06-24 09:49:00,57.0,52.8,29.84,WSW,248,0.0,5.5,86,0.00,,,0.00,WUHU216HW,2013-06-24 16:49:00,
2013-06-24 09:54:00,57.3,53.2,29.85,SW,225,0.0,5.5,86,0.00,,,0.00,WUHU216HW,2013-06-24 16:54:00,
2013-06-24 10:00:00,57.3,52.8,29.85,West,270,0.0,0.0,85,0.00,,,0.00,WUHU216HW,2013-06-24 17:00:00,
2013-06-24 10:05:00,57.5,53.0,29.85,SSW,203,1.5,1.5,85,0.00,,,0.00,WUHU216HW,2013-06-24 17:05:00,
2013-06-24 10:10:00,57.7,53.2,29.85,WSW,248,4.2,4.2,85,0.00,,,0.00,WUHU216HW,2013-06-24 17:10:00,
2013-06-24 10:15:00,57.7,52.9,29.86,SW,225,0.0,4.2,84,0.00,,,0.00,WUHU216HW,2013-06-24 17:15:00,
2013-06-24 10:20:00,57.9,53.0,29.86,SSW,203,0.0,4.2,84,0.00,,,0.00,WUHU216HW,2013-06-24 17:20:00,
2013-06-24 10:25:00,57.9,53.0,29.85,SSE,158,0.8,2.4,84,0.00,,,0.00,WUHU216HW,2013-06-24 17:25:00,
2013-06-24 10:30:00,57.9,53.0,29.85,South,180,0.0,2.4,84,0.00,,,0.00,WUHU216HW,2013-06-24 17:30:00,
2013-06-24 10:35:00,58.1,53.2,29.85,SSE,158,0.0,4.2,84,0.00,,,0.00,WUHU216HW,2013-06-24 17:35:00,
2013-06-24 10:41:00,58.1,53.2,29.85,SW,225,0.0,4.2,84,0.00,,,0.00,WUHU216HW,2013-06-24 17:41:00,
2013-06-24 10:46:00,58.1,53.2,29.86,SSW,203,0.0,3.8,84,0.00,,,0.00,WUHU216HW,2013-06-24 17:46:00,
2013-06-24 10:51:00,58.2,53.4,29.86,WSW,248,0.0,3.8,84,0.00,,,0.00,WUHU216HW,2013-06-24 17:51:00,
2013-06-24 10:56:00,58.4,53.3,29.87,SSW,203,0.0,0.0,83,0.00,,,0.00,WUHU216HW,2013-06-24 17:56:00,
2013-06-24 11:01:00,58.6,53.4,29.86,SSW,203,2.4,2.4,83,0.00,,,0.00,WUHU216HW,2013-06-24 18:01:00,
2013-06-24 11:07:00,58.6,53.4,29.86,SSW,203,0.0,2.4,83,0.00,,,0.00,WUHU216HW,2013-06-24 18:07:00,
2013-06-24 11:12:00,58.6,53.4,29.87,SSE,158,0.8,4.4,83,0.00,,,0.00,WUHU216HW,2013-06-24 18:12:00,
2013-06-24 11:18:00,58.6,53.4,29.86,South,180,0.0,4.4,83,0.00,,,0.00,WUHU216HW,2013-06-24 18:18:00,
2013-06-24 11:23:00,58.6,53.1,29.87,SW,225,1.7,3.5,82,0.00,,,0.00,WUHU216HW,2013-06-24 18:23:00,
2013-06-24 11:28:00,58.8,53.3,29.87,SW,225,1.1,3.5,82,0.00,,,0.00,WUHU216HW,2013-06-24 18:28:00,
2013-06-24 11:33:00,58.8,53.3,29.87,SSW,203,0.0,2.0,82,0.00,,,0.00,WUHU216HW,2013-06-24 18:33:00,
2013-06-24 11:38:00,58.8,53.3,29.87,ESE,113,0.0,0.0,82,0.00,,,0.00,WUHU216HW,2013-06-24 18:38:00,
2013-06-24 11:43:00,58.8,53.3,29.88,SW,225,6.4,6.4,82,0.00,,,0.00,WUHU216HW,2013-06-24 18:43:00,
2013-06-24 11:48:00,58.8,53.3,29.87,SW,225,3.1,6.4,82,0.00,,,0.00,WUHU216HW,2013-06-24 18:48:00,
2013-06-24 11:53:00,58.8,53.3,29.88,SW,225,3.1,3.1,82,0.00,,,0.00,WUHU216HW,2013-06-24 18:53:00,
2013-06-24 11:59:00,58.8,53.3,29.87,SSE,158,0.0,3.1,82,0.00,,,0.00,WUHU216HW,2013-06-24 18:59:00,
2013-06-24 12:04:00,58.8,53.3,29.88,SSW,203,0.0,0.0,82,0.00,,,0.00,WUHU216HW,2013-06-24 19:04:00,
2013-06-24 12:09:00,58.8,53.3,29.87,SSW,203,0.0,0.0,82,0.00,,,0.00,WUHU216HW,2013-06-24 19:09:00,
2013-06-24 12:14:00,58.8,53.3,29.87,SW,225,0.0,1.3,82,0.00,,,0.00,WUHU216HW,2013-06-24 19:14:00,
2013-06-24 12:19:00,58.8,53.3,29.87,SW,225,0.0,1.3,82,0.00,,,0.00,WUHU216HW,2013-06-24 19:19:00,
2013-06-24 12:24:00,58.8,53.6,29.87,SW,225,0.0,0.0,83,0.00,,,0.00,WUHU216HW,2013-06-24 19:24:00,
2013-06-24 12:29:00,58.8,53.6,29.88,SSE,158,0.0,0.0,83,0.00,,,0.00,WUHU216HW,2013-06-24 19:29:00,
2013-06-24 12:34:00,58.8,53.6,29.87,SE,135,1.1,1.3,83,0.00,,,0.00,WUHU216HW,2013-06-24 19:34:00,
2013-06-24 12:40:00,58.8,53.6,29.87,SSE,158,0.0,1.3,83,0.00,,,0.00,WUHU216HW,2013-06-24 19:40:00,
2013-06-24 12:45:00,58.8,53.6,29.88,SSW,203,0.0,0.0,83,0.00,,,0.00,WUHU216HW,2013-06-24 19:45:00,
2013-06-24 12:50:00,58.8,53.6,29.88,SSW,203,1.7,1.7,83,0.00,,,0.00,WUHU216HW,2013-06-24 19:50:00,
2013-06-24 12:55:00,58.8,53.6,29.88,SSW,203,0.0,1.7,83,0.00,,,0.00,WUHU216HW,2013-06-24 19:55:00,
2013-06-24 13:00:00,58.8,53.6,29.88,South,180,0.0,1.7,83,0.00,,,0.00,WUHU216HW,2013-06-24 20:00:00,
2013-06-24 13:05:00,58.8,53.6,29.88,SW,225,0.8,0.8,83,0.00,,,0.00,WUHU216HW,2013-06-24 20:05:00,
2013-06-24 13:10:00,58.8,53.6,29.88,South,180,0.0,0.8,83,0.00,,,0.00,WUHU216HW,2013-06-24 20:10:00,
2013-06-24 13:15:00,58.8,53.6,29.88,SSW,203,2.4,2.4,83,0.00,,,0.00,WUHU216HW,2013-06-24 20:15:00,
2013-06-24 13:20:00,58.8,53.6,29.88,SW,225,0.0,2.9,83,0.00,,,0.00,WUHU216HW,2013-06-24 20:20:00,
2013-06-24 13:25:00,58.8,53.6,29.88,WSW,248,0.0,2.9,83,0.00,,,0.00,WUHU216HW,2013-06-24 20:25:00,
2013-06-24 13:31:00,58.8,53.6,29.88,SSE,158,0.8,0.8,83,0.00,,,0.00,WUHU216HW,2013-06-24 20:31:00,
2013-06-24 13:36:00,58.8,53.6,29.88,South,180,0.0,5.3,83,0.00,,,0.00,WUHU216HW,2013-06-24 20:36:00,
2013-06-24 13:41:00,58.6,53.8,29.88,SSE,158,1.1,5.3,84,0.00,,,0.00,WUHU216HW,2013-06-24 20:41:00,
2013-06-24 13:46:00,58.8,53.9,29.88,SSW,203,0.0,1.1,84,0.00,,,0.00,WUHU216HW,2013-06-24 20:46:00,
2013-06-24 13:51:00,58.8,53.9,29.87,SW,225,0.0,1.1,84,0.00,,,0.00,WUHU216HW,2013-06-24 20:51:00,
2013-06-24 13:56:00,58.8,54.3,29.87,WSW,248,2.2,2.2,85,0.00,,,0.00,WUHU216HW,2013-06-24 20:56:00,
2013-06-24 14:01:00,58.8,54.3,29.88,SSW,203,0.0,2.2,85,0.00,,,0.00,WUHU216HW,2013-06-24 21:01:00,
2013-06-24 14:06:00,58.8,54.3,29.88,SW,225,4.0,4.0,85,0.00,,,0.00,WUHU216HW,2013-06-24 21:06:00,
2013-06-24 14:11:00,58.8,54.3,29.88,SW,225,0.0,4.0,85,0.00,,,0.00,WUHU216HW,2013-06-24 21:11:00,
2013-06-24 14:16:00,58.8,54.3,29.88,SW,225,2.9,2.9,85,0.00,,,0.00,WUHU216HW,2013-06-24 21:16:00,
2013-06-24 14:21:00,58.8,54.3,29.88,SSW,203,4.0,4.0,85,0.00,,,0.00,WUHU216HW,2013-06-24 21:21:00,
2013-06-24 14:26:00,58.8,54.3,29.87,SW,225,0.0,4.0,85,0.00,,,0.00,WUHU216HW,2013-06-24 21:26:00,
2013-06-24 14:32:00,58.8,54.3,29.88,SW,225,3.3,3.3,85,0.00,,,0.00,WUHU216HW,2013-06-24 21:32:00,
2013-06-24 14:37:00,58.8,54.3,29.88,SW,225,0.0,3.3,85,0.00,,,0.00,WUHU216HW,2013-06-24 21:37:00,
2013-06-24 14:42:00,58.8,54.6,29.88,SSW,203,0.6,3.3,86,0.00,,,0.00,WUHU216HW,2013-06-24 21:42:00,
2013-06-24 14:47:00,58.8,54.6,29.87,SSW,203,1.1,1.1,86,0.00,,,0.00,WUHU216HW,2013-06-24 21:47:00,
2013-06-24 14:52:00,58.8,54.6,29.88,SW,225,0.0,1.1,86,0.00,,,0.00,WUHU216HW,2013-06-24 21:52:00,
2013-06-24 14:57:00,58.8,54.6,29.88,SSW,203,0.0,0.0,86,0.00,,,0.00,WUHU216HW,2013-06-24 21:57:00,
2013-06-24 15:02:00,58.8,54.6,29.87,SSW,203,0.0,0.0,86,0.00,,,0.00,WUHU216HW,2013-06-24 22:02:00,
2013-06-24 15:07:00,58.8,54.6,29.87,SW,225,0.0,0.0,86,0.00,,,0.00,WUHU216HW,2013-06-24 22:07:00,
2013-06-24 15:12:00,58.8,54.6,29.87,SSW,203,0.0,0.0,86,0.00,,,0.00,WUHU216HW,2013-06-24 22:12:00,
2013-06-24 15:18:00,58.8,54.6,29.87,WSW,248,0.0,0.0,86,0.00,,,0.00,WUHU216HW,2013-06-24 22:18:00,
2013-06-24 15:23:00,58.8,54.6,29.87,SW,225,0.0,0.0,86,0.00,,,0.00,WUHU216HW,2013-06-24 22:23:00,
2013-06-24 15:28:00,58.8,54.8,29.87,SW,225,0.0,0.0,86,0.00,,,0.00,WUHU216HW,2013-06-24 22:28:00,
2013-06-24 15:33:00,59.1,55.0,29.87,SW,225,0.0,0.0,86,0.00,,,0.00,WUHU216HW,2013-06-24 22:33:00,
2013-06-24 15:38:00,59.1,55.0,29.87,SSW,203,0.0,0.0,86,0.00,,,0.00,WUHU216HW,2013-06-24 22:38:00,
2013-06-24 15:43:00,59.0,54.8,29.86,South,180,0.0,0.0,86,0.00,,,0.00,WUHU216HW,2013-06-24 22:43:00,
2013-06-24 15:48:00,59.1,55.0,29.86,SSW,203,0.0,0.0,86,0.00,,,0.00,WUHU216HW,2013-06-24 22:48:00,
2013-06-24 15:53:00,59.1,55.0,29.86,SW,225,0.0,0.0,86,0.00,,,0.00,WUHU216HW,2013-06-24 22:53:00,
2013-06-24 15:59:00,59.1,55.0,29.86,SSW,203,0.0,0.0,86,0.00,,,0.00,WUHU216HW,2013-06-24 22:59:00,
2013-06-24 16:04:00,59.3,55.1,29.87,West,270,0.0,0.0,86,0.00,,,0.00,WUHU216HW,2013-06-24 23:04:00,
2013-06-24 16:09:00,59.5,55.3,29.87,SW,225,0.0,0.0,86,0.00,,,0.00,WUHU216HW,2013-06-24 23:09:00,
2013-06-24 16:14:00,59.5,55.3,29.87,SSW,203,0.0,0.0,86,0.00,,,0.00,WUHU216HW,2013-06-24 23:14:00,
2013-06-24 16:19:00,59.5,55.3,29.87,SSW,203,0.0,0.0,86,0.00,,,0.00,WUHU216HW,2013-06-24 23:19:00,
2013-06-24 16:24:00,59.3,55.1,29.87,SSW,203,0.0,0.0,86,0.00,,,0.00,WUHU216HW,2013-06-24 23:24:00,
2013-06-24 16:29:00,59.5,55.0,29.87,SSW,203,1.3,1.3,85,0.00,,,0.00,WUHU216HW,2013-06-24 23:29:00,
2013-06-24 16:34:00,59.3,54.8,29.87,SW,225,0.0,1.3,85,0.00,,,0.00,WUHU216HW,2013-06-24 23:34:00,
2013-06-24 16:39:00,59.3,54.8,29.88,SW,225,0.0,0.0,85,0.00,,,0.00,WUHU216HW,2013-06-24 23:39:00,
2013-06-24 16:44:00,59.3,54.8,29.88,SSW,203,0.0,0.0,85,0.00,,,0.00,WUHU216HW,2013-06-24 23:44:00,
2013-06-24 16:49:00,59.3,54.8,29.87,SSW,203,0.0,0.0,85,0.00,,,0.00,WUHU216HW,2013-06-24 23:49:00,
2013-06-24 16:54:00,59.1,54.6,29.88,SSW,203,2.0,2.0,85,0.00,,,0.00,WUHU216HW,2013-06-24 23:54:00,
2013-06-24 16:59:00,59.1,54.6,29.87,SSW,203,0.0,2.0,85,0.00,,,0.00,WUHU216HW,2013-06-24 23:59:00,
2013-06-24 17:05:00,59.1,54.6,29.87,SW,225,0.0,2.0,85,0.00,,,0.00,WUHU216HW,2013-06-25 00:05:00,
2013-06-24 17:10:00,58.8,54.6,29.87,SSW,203,0.0,1.7,86,0.00,,,0.00,WUHU216HW,2013-06-25 00:10:00,
2013-06-24 17:15:00,58.8,54.6,29.87,South,180,0.0,1.7,86,0.00,,,0.00,WUHU216HW,2013-06-25 00:15:00,
2013-06-24 17:20:00,58.8,54.6,29.87,SSW,203,0.0,0.0,86,0.00,,,0.00,WUHU216HW,2013-06-25 00:20:00,
2013-06-24 17:25:00,58.8,54.6,29.87,SW,225,0.0,0.0,86,0.00,,,0.00,WUHU216HW,2013-06-25 00:25:00,
2013-06-24 17:30:00,58.6,54.4,29.87,SSW,203,0.0,5.3,86,0.00,,,0.00,WUHU216HW,2013-06-25 00:30:00,
2013-06-24 17:35:00,58.2,54.1,29.87,SW,225,0.0,5.3,86,0.00,,,0.00,WUHU216HW,2013-06-25 00:35:00,
2013-06-24 17:40:00,58.2,54.1,29.87,South,180,0.0,2.0,86,0.00,,,0.00,WUHU216HW,2013-06-25 00:40:00,
2013-06-24 17:46:00,58.1,53.9,29.87,South,180,1.5,2.0,86,0.00,,,0.00,WUHU216HW,2013-06-25 00:46:00,
2013-06-24 17:51:00,58.1,53.9,29.87,South,180,0.0,1.5,86,0.00,,,0.00,WUHU216HW,2013-06-25 00:51:00,
2013-06-24 17:56:00,57.9,53.7,29.87,SSW,203,4.0,4.0,86,0.00,,,0.00,WUHU216HW,2013-06-25 00:56:00,
2013-06-24 18:01:00,57.5,53.3,29.86,SSW,203,0.0,4.0,86,0.00,,,0.00,WUHU216HW,2013-06-25 01:01:00,
2013-06-24 18:06:00,57.7,53.5,29.87,SSW,203,0.0,4.0,86,0.00,,,0.00,WUHU216HW,2013-06-25 01:06:00,
2013-06-24 18:11:00,57.5,53.3,29.87,SW,225,0.0,0.8,86,0.00,,,0.00,WUHU216HW,2013-06-25 01:11:00,
2013-06-24 18:16:00,57.5,53.3,29.87,SSW,203,3.3,3.3,86,0.00,,,0.00,WUHU216HW,2013-06-25 01:16:00,
2013-06-24 18:21:00,57.5,53.3,29.86,South,180,0.0,3.3,86,0.00,,,0.00,WUHU216HW,2013-06-25 01:21:00,
2013-06-24 18:26:00,57.5,53.3,29.86,SSW,203,0.0,3.3,86,0.00,,,0.00,WUHU216HW,2013-06-25 01:26:00,
2013-06-24 18:32:00,57.3,53.2,29.86,South,180,0.0,1.3,86,0.00,,,0.00,WUHU216HW,2013-06-25 01:32:00,
2013-06-24 18:37:00,57.3,53.5,29.86,SSW,203,0.0,0.8,87,0.00,,,0.00,WUHU216HW,2013-06-25 01:37:00,
2013-06-24 18:42:00,57.3,53.5,29.86,SW,225,0.0,0.0,87,0.00,,,0.00,WUHU216HW,2013-06-25 01:42:00,
2013-06-24 18:47:00,57.3,53.5,29.86,SW,225,0.0,0.0,87,0.00,,,0.00,WUHU216HW,2013-06-25 01:47:00,
2013-06-24 18:52:00,57.3,53.5,29.87,SSE,158,0.0,0.0,87,0.00,,,0.00,WUHU216HW,2013-06-25 01:52:00,
2013-06-24 18:57:00,57.3,53.5,29.86,SSW,203,0.0,0.0,87,0.00,,,0.00,WUHU216HW,2013-06-25 01:57:00,
2013-06-24 19:02:00,57.5,53.5,29.86,SSW,203,0.0,0.0,87,0.00,,,0.00,WUHU216HW,2013-06-25 02:02:00,
2013-06-24 19:07:00,57.3,53.5,29.86,SSW,203,0.0,0.0,87,0.00,,,0.00,WUHU216HW,2013-06-25 02:07:00,
2013-06-24 19:12:00,57.3,53.5,29.86,SSW,203,0.0,0.0,87,0.00,,,0.00,WUHU216HW,2013-06-25 02:12:00,
2013-06-24 19:17:00,57.5,53.7,29.87,North,0,0.0,0.0,87,0.00,,,0.00,WUHU216HW,2013-06-25 02:17:00,
2013-06-24 19:22:00,57.5,54.0,29.87,SW,225,0.0,0.8,88,0.00,,,0.00,WUHU216HW,2013-06-25 02:22:00,
2013-06-24 19:27:00,57.7,54.2,29.87,SSW,203,0.0,0.8,88,0.00,,,0.00,WUHU216HW,2013-06-25 02:27:00,
2013-06-24 19:32:00,57.5,54.0,29.87,North,0,0.0,2.2,88,0.00,,,0.00,WUHU216HW,2013-06-25 02:32:00,
2013-06-24 19:37:00,57.7,54.2,29.88,SSW,203,0.0,3.5,88,0.00,,,0.00,WUHU216HW,2013-06-25 02:37:00,
2013-06-24 19:42:00,57.5,54.0,29.87,SW,225,0.0,3.5,88,0.00,,,0.00,WUHU216HW,2013-06-25 02:42:00,
2013-06-24 19:48:00,57.3,53.8,29.87,SW,225,0.8,0.8,88,0.00,,,0.00,WUHU216HW,2013-06-25 02:48:00,
2013-06-24 19:53:00,57.3,53.8,29.87,SSW,203,0.0,0.8,88,0.00,,,0.00,WUHU216HW,2013-06-25 02:53:00,
2013-06-24 19:58:00,57.3,53.8,29.87,SW,225,1.3,1.3,88,0.00,,,0.00,WUHU216HW,2013-06-25 02:58:00,
2013-06-24 20:03:00,57.2,53.6,29.87,WSW,248,0.0,1.3,88,0.00,,,0.00,WUHU216HW,2013-06-25 03:03:00,
2013-06-24 20:08:00,57.2,53.6,29.87,SSW,203,3.1,3.1,88,0.00,,,0.00,WUHU216HW,2013-06-25 03:08:00,
2013-06-24 20:13:00,57.2,53.6,29.87,SSE,158,0.0,3.1,88,0.00,,,0.00,WUHU216HW,2013-06-25 03:13:00,
2013-06-24 20:18:00,57.2,53.6,29.87,SSW,203,0.0,2.9,88,0.00,,,0.00,WUHU216HW,2013-06-25 03:18:00,
2013-06-24 20:24:00,57.2,53.6,29.87,SSW,203,0.0,0.0,88,0.00,,,0.00,WUHU216HW,2013-06-25 03:24:00,
2013-06-24 20:29:00,57.0,53.4,29.87,SW,225,0.0,2.9,88,0.00,,,0.00,WUHU216HW,2013-06-25 03:29:00,
2013-06-24 20:34:00,57.0,53.4,29.87,SW,225,3.1,3.1,88,0.00,,,0.00,WUHU216HW,2013-06-25 03:34:00,
2013-06-24 20:39:00,57.0,53.8,29.87,West,270,0.0,3.1,89,0.00,,,0.00,WUHU216HW,2013-06-25 03:39:00,
2013-06-24 20:44:00,57.0,53.8,29.87,SW,225,0.6,3.1,89,0.00,,,0.00,WUHU216HW,2013-06-25 03:44:00,
2013-06-24 20:49:00,57.0,53.8,29.87,SW,225,0.0,0.6,89,0.00,,,0.00,WUHU216HW,2013-06-25 03:49:00,
2013-06-24 20:54:00,57.0,53.8,29.88,SSW,203,2.0,2.4,89,0.00,,,0.00,WUHU216HW,2013-06-25 03:54:00,
2013-06-24 21:00:00,57.0,53.8,29.87,South,180,0.0,2.4,89,0.00,,,0.00,WUHU216HW,2013-06-25 04:00:00,
2013-06-24 21:01:00,57.0,53.8,29.87,South,180,0.0,2.4,89,0.00,,,0.00,WUHU216HW,2013-06-25 04:01:00,
2013-06-24 21:06:00,57.0,53.8,29.87,SW,225,0.0,3.5,89,0.00,,,0.00,WUHU216HW,2013-06-25 04:06:00,
2013-06-24 21:12:00,57.0,53.8,29.87,SSW,203,0.0,3.5,89,0.00,,,0.00,WUHU216HW,2013-06-25 04:12:00,
2013-06-24 21:17:00,57.0,53.8,29.87,South,180,0.0,1.5,89,0.00,,,0.00,WUHU216HW,2013-06-25 04:17:00,
2013-06-24 21:22:00,57.0,53.8,29.88,South,180,0.0,2.0,89,0.00,,,0.00,WUHU216HW,2013-06-25 04:22:00,
2013-06-24 21:27:00,57.0,53.8,29.87,SSE,158,0.0,2.0,89,0.00,,,0.00,WUHU216HW,2013-06-25 04:27:00,
2013-06-24 21:32:00,57.0,53.8,29.88,SW,225,0.0,0.0,89,0.00,,,0.00,WUHU216HW,2013-06-25 04:32:00,
2013-06-24 21:37:00,57.0,53.8,29.88,South,180,0.0,0.0,89,0.00,,,0.00,WUHU216HW,2013-06-25 04:37:00,
2013-06-24 21:42:00,57.0,53.8,29.88,SW,225,0.0,0.0,89,0.00,,,0.00,WUHU216HW,2013-06-25 04:42:00,
2013-06-24 21:47:00,57.0,53.8,29.88,SE,135,0.0,0.0,89,0.00,,,0.00,WUHU216HW,2013-06-25 04:47:00,
2013-06-24 21:52:00,57.0,53.8,29.88,SSW,203,0.0,0.0,89,0.00,,,0.00,WUHU216HW,2013-06-25 04:52:00,
2013-06-24 21:57:00,57.0,53.8,29.88,SSE,158,0.0,0.8,89,0.00,,,0.00,WUHU216HW,2013-06-25 04:57:00,
2013-06-24 22:02:00,57.2,53.9,29.88,WSW,248,0.0,0.8,89,0.00,,,0.00,WUHU216HW,2013-06-25 05:02:00,
2013-06-24 22:07:00,57.2,53.9,29.88,SSE,158,0.0,2.2,89,0.00,,,0.00,WUHU216HW,2013-06-25 05:07:00,
2013-06-24 22:13:00,57.3,54.1,29.88,SSE,158,0.0,2.2,89,0.00,,,0.00,WUHU216HW,2013-06-25 05:13:00,
2013-06-24 22:18:00,57.2,53.9,29.88,SSW,203,0.0,0.0,89,0.00,,,0.00,WUHU216HW,2013-06-25 05:18:00,
2013-06-24 22:23:00,57.3,54.1,29.88,SW,225,0.0,0.2,89,0.00,,,0.00,WUHU216HW,2013-06-25 05:23:00,
2013-06-24 22:28:00,57.3,54.1,29.89,SSW,203,1.5,1.5,89,0.00,,,0.00,WUHU216HW,2013-06-25 05:28:00,
2013-06-24 22:33:00,57.2,54.1,29.89,South,180,0.0,1.5,89,0.00,,,0.00,WUHU216HW,2013-06-25 05:33:00,
2013-06-24 22:38:00,57.2,53.9,29.89,SSE,158,1.5,1.5,89,0.00,,,0.00,WUHU216HW,2013-06-25 05:38:00,
2013-06-24 22:43:00,57.2,53.9,29.89,SSW,203,0.0,3.5,89,0.00,,,0.00,WUHU216HW,2013-06-25 05:43:00,
2013-06-24 22:48:00,57.3,54.1,29.88,SW,225,1.5,3.5,89,0.00,,,0.00,WUHU216HW,2013-06-25 05:48:00,
2013-06-24 22:53:00,57.3,54.1,29.88,SSW,203,0.0,1.5,89,0.00,,,0.00,WUHU216HW,2013-06-25 05:53:00,
2013-06-24 22:59:00,57.3,54.1,29.88,South,180,0.2,2.4,89,0.00,,,0.00,WUHU216HW,2013-06-25 05:59:00,
2013-06-24 23:04:00,57.3,54.1,29.88,SSE,158,0.0,2.4,89,0.00,,,0.00,WUHU216HW,2013-06-25 06:04:00,
2013-06-24 23:09:00,57.3,54.1,29.88,SSW,203,0.0,0.2,89,0.00,,,0.00,WUHU216HW,2013-06-25 06:09:00,
2013-06-24 23:14:00,57.3,54.1,29.88,SSW,203,0.0,0.0,89,0.00,,,0.00,WUHU216HW,2013-06-25 06:14:00,
2013-06-24 23:19:00,57.3,54.1,29.88,South,180,0.0,0.0,89,0.00,,,0.00,WUHU216HW,2013-06-25 06:19:00,
2013-06-24 23:24:00,57.3,54.1,29.87,SSE,158,0.0,0.0,89,0.00,,,0.00,WUHU216HW,2013-06-25 06:24:00,
2013-06-24 23:29:00,57.3,54.1,29.87,SSE,158,0.0,0.0,89,0.00,,,0.00,WUHU216HW,2013-06-25 06:29:00,
2013-06-24 23:34:00,57.3,54.1,29.87,SE,135,0.0,0.0,89,0.00,,,0.00,WUHU216HW,2013-06-25 06:34:00,
2013-06-24 23:39:00,57.3,54.1,29.87,SSE,158,0.0,0.8,89,0.00,,,0.00,WUHU216HW,2013-06-25 06:39:00,
2013-06-24 23:44:00,57.3,54.1,29.87,SE,135,0.0,0.8,89,0.00,,,0.00,WUHU216HW,2013-06-25 06:44:00,
2013-06-24 23:49:00,57.5,54.3,29.88,SE,135,0.0,0.0,89,0.00,,,0.00,WUHU216HW,2013-06-25 06:49:00,
2013-06-24 23:54:00,57.5,54.3,29.88,SE,135,0.0,0.0,89,0.00,,,0.00,WUHU216HW,2013-06-25 06:54:00,
2013-06-24 23:59:00,57.5,54.3,29.88,SE,135,0.0,0.0,89,0.00,,,0.00,WUHU216HW,2013-06-25 06:59:00,